ADDS TAF Data INFO
IDs: Format: Raw Decoded Include METARs

Data at: 2149 UTC 25 Feb 2018

KGUP 252053Z AUTO 26007KT 240V300 10SM CLR 03/M12 A3012 RMK AO2 SLP207 T00331122 58010

KGUP 251720Z 2518/2618 31011KT P6SM FEW060
  FM252300 28006KT P6SM SKC
  FM260300 00000KT P6SM SKC